San Jose/Bolanos, Costa Rica

10:06 PM CST on March 25, 2017 (GMT -0600)
Carretera John F Kennedy | | Change Station

Elev 3395 ft 9.93 °N, 84.15 °W | Updated 14 minutes ago

Clear
Clear
74.5 °F
Feels Like 76 °F
N
1.2
Wind Variable Wind from SSW
Gusts 3.1 mph

Today
High -- | Low -- °F
--% Chance of Precip.
Yesterday
High -- | Low -- °F
Precip. -- in
Pressure 30.04 in
Visibility 6.2 miles
Clouds Few 4000 ft
Heat Index 76 °F
Dew Point 63 °F
Humidity 68%
Rainfall 0.00 in
Snow Depth Not available.
5:37 AM 5:47 PM
Waning Crescent, 5% visible
METAR MROC 260400Z 10008KT 9999 FEW040 21/17 A3004 NOSIG
Pressure 30.04 in
Visibility 6.2 miles
Clouds Few 4000 ft
Heat Index 76 °F
Dew Point 63 °F
Humidity 68%
Rainfall 0.00 in
Snow Depth Not available.
5:37 AM 5:47 PM
Waning Crescent, 5% visible
METAR MROC 260400Z 10008KT 9999 FEW040 21/17 A3004 NOSIG

Get Severe Weather Alerts

Thanks for signing up!

Be on the lookout for a verification email in your inbox.

You'll start receiving the daily forecast at 8 AM.

×

10-Day Weather Forecast

No radar image for this location.
×

Almanac

Astronomy

Mar. 25, 2017 Rise Set
Actual Time
Civil Twilight
Nautical Twilight
Astronomical Twilight
Moon
Length of Visible Light
Length of Day
Tomorrow will be .
, % of the Moon is Illuminated

Today's Extremes

Country Highs Country Lows

Community

WunderPhotos

Upload Photos

1,962,540 photos uploaded!

WunderBlog® & News

Nearby

Air Quality

  Air Quality AQ Index Pollutant
Not available.

Snow Depth

Station Depth Elevation

Earthquake Activity

City Distance Mag. Time & Date
Minimum magnitude displayed is 2.5.

Earthquake Activity

City Distance Mag. Time & Date
Minimum magnitude displayed is 2.5.

Coastal Water Temperatures

Place Temperature

Stations

Nearby Weather Stations

Station Location Temp. Windchill Dew Point Humidity Wind Precip. Elev Updated Type